createdAt,value
2023-03-12T00:00:52.692Z,8.93
2023-03-12T00:03:19.325Z,13.23
2023-03-12T00:05:45.961Z,8.48
2023-03-12T00:08:14.439Z,8.85
2023-03-12T00:10:41.144Z,8.80
2023-03-12T00:13:08.530Z,10.93
2023-03-12T00:15:39.323Z,11.85
2023-03-12T00:18:06.215Z,11.02
2023-03-12T00:20:32.810Z,10.82
2023-03-12T00:22:59.628Z,12.68
2023-03-12T00:25:26.218Z,11.13
2023-03-12T00:27:52.754Z,9.75
2023-03-12T00:30:19.387Z,8.10
2023-03-12T00:32:46.205Z,7.70
2023-03-12T00:35:12.995Z,9.63
2023-03-12T00:37:39.714Z,7.60
2023-03-12T00:40:09.159Z,8.57
2023-03-12T00:42:35.733Z,8.50
2023-03-12T00:45:02.383Z,6.82
2023-03-12T00:47:28.930Z,8.05
2023-03-12T00:49:55.530Z,8.50
2023-03-12T00:52:22.094Z,6.40
2023-03-12T00:54:48.629Z,8.95
2023-03-12T00:57:15.243Z,10.00
2023-03-12T00:59:42.889Z,7.95
2023-03-12T01:02:09.815Z,10.27
2023-03-12T01:04:36.584Z,13.30
2023-03-12T01:07:03.206Z,11.60
2023-03-12T01:09:29.727Z,10.68
2023-03-12T01:11:56.281Z,9.10
2023-03-12T01:14:24.118Z,8.50
2023-03-12T01:16:52.447Z,5.95
2023-03-12T01:19:19.519Z,4.85
2023-03-12T01:21:46.109Z,7.05
2023-03-12T01:24:12.738Z,6.32
2023-03-12T01:26:39.496Z,6.95
2023-03-12T01:29:06.451Z,4.40
2023-03-12T01:31:32.986Z,4.35
2023-03-12T01:33:59.596Z,3.53
2023-03-12T01:36:29.595Z,6.43
2023-03-12T01:38:58.194Z,3.95
2023-03-12T01:41:26.076Z,6.82
2023-03-12T01:43:52.831Z,5.50
2023-03-12T01:46:27.046Z,4.13
2023-03-12T01:49:16.522Z,5.28
2023-03-12T01:51:46.274Z,5.07
2023-03-12T01:54:17.207Z,6.40
2023-03-12T01:56:43.918Z,6.97
2023-03-12T01:59:16.535Z,3.70
2023-03-12T02:01:43.823Z,3.63
2023-03-12T02:04:11.190Z,4.18
2023-03-12T02:06:51.500Z,3.40
2023-03-12T02:09:20.246Z,3.08
2023-03-12T02:11:48.302Z,5.80
2023-03-12T02:14:14.992Z,7.85
2023-03-12T02:16:41.752Z,2.95
2023-03-12T02:19:16.629Z,7.45
2023-03-12T02:21:43.266Z,4.85
2023-03-12T02:24:28.398Z,2.35
2023-03-12T02:26:55.980Z,6.13
2023-03-12T02:29:22.900Z,4.70
2023-03-12T02:31:52.839Z,3.38
2023-03-12T02:34:19.492Z,4.32
2023-03-12T02:36:47.989Z,3.70
2023-03-12T02:39:14.565Z,3.72
2023-03-12T02:41:44.989Z,4.50
2023-03-12T02:44:18.607Z,6.25
2023-03-12T02:46:50.241Z,6.03
2023-03-12T02:49:18.370Z,6.95
2023-03-12T02:51:45.892Z,3.53
2023-03-12T02:54:14.015Z,5.95
2023-03-12T02:56:40.929Z,3.95
2023-03-12T02:59:09.060Z,4.88
2023-03-12T03:01:39.287Z,3.15
2023-03-12T03:04:07.737Z,3.40
2023-03-12T03:06:35.368Z,3.25
2023-03-12T03:09:02.192Z,3.83
2023-03-12T03:11:28.968Z,4.45
2023-03-12T03:13:56.185Z,6.53
2023-03-12T03:16:24.021Z,4.97
2023-03-12T03:18:50.738Z,4.13
2023-03-12T03:21:17.936Z,2.78
2023-03-12T03:23:47.229Z,6.63
2023-03-12T03:26:14.622Z,4.07
2023-03-12T03:31:08.160Z,5.50
2023-03-12T03:33:38.740Z,3.72
2023-03-12T03:36:08.402Z,4.25
2023-03-12T03:38:39.421Z,6.57
2023-03-12T03:41:06.467Z,4.10
2023-03-12T03:43:37.205Z,3.22
2023-03-12T03:46:05.937Z,3.90
2023-03-12T03:48:36.361Z,5.70
2023-03-12T03:51:05.504Z,5.90
2023-03-12T03:53:34.667Z,6.60
2023-03-12T03:56:07.152Z,4.25
2023-03-12T03:58:36.347Z,3.33
2023-03-12T04:01:03.453Z,6.40
2023-03-12T04:03:30.540Z,5.70
2023-03-12T04:05:59.830Z,4.65
2023-03-12T04:08:27.113Z,3.78
2023-03-12T04:10:53.800Z,5.70
2023-03-12T04:13:21.078Z,8.23
2023-03-12T04:15:49.021Z,8.07
2023-03-12T04:18:16.463Z,8.50
2023-03-12T04:20:43.607Z,4.47
2023-03-12T04:23:10.433Z,8.02
2023-03-12T04:25:37.325Z,4.65
2023-03-12T04:28:04.863Z,5.95
2023-03-12T04:30:32.212Z,6.88
2023-03-12T04:32:58.883Z,6.25
2023-03-12T04:35:25.580Z,3.83
2023-03-12T04:37:52.452Z,3.42
2023-03-12T04:40:19.972Z,2.92
2023-03-12T04:42:47.655Z,4.38
2023-03-12T04:45:14.852Z,6.03
2023-03-12T04:47:45.262Z,4.35
2023-03-12T04:50:12.755Z,6.75
2023-03-12T04:52:39.770Z,6.80
2023-03-12T04:55:07.784Z,6.63
2023-03-12T04:57:34.769Z,5.18
2023-03-12T05:00:01.407Z,5.05
2023-03-12T05:02:28.527Z,8.10
2023-03-12T05:04:57.363Z,8.43
2023-03-12T05:07:24.058Z,3.67
2023-03-12T05:09:50.924Z,5.35
2023-03-12T05:12:17.578Z,2.67
2023-03-12T05:14:44.224Z,7.25
2023-03-12T05:17:10.960Z,3.58
2023-03-12T05:19:37.512Z,5.30
2023-03-12T05:22:04.350Z,4.28
2023-03-12T05:24:32.975Z,5.20
2023-03-12T05:26:59.901Z,8.73
2023-03-12T05:29:26.513Z,8.68
2023-03-12T05:31:54.295Z,4.70
2023-03-12T05:34:20.985Z,5.70
2023-03-12T05:36:47.610Z,6.40
2023-03-12T05:39:18.726Z,4.93
2023-03-12T05:41:46.058Z,11.48
2023-03-12T05:44:17.311Z,4.20
2023-03-12T05:46:47.953Z,7.10
2023-03-12T05:49:14.826Z,7.70
2023-03-12T05:51:43.387Z,6.95
2023-03-12T05:54:10.558Z,4.80
2023-03-12T05:56:37.675Z,6.38
2023-03-12T05:59:04.919Z,7.10
2023-03-12T06:01:32.063Z,7.80
2023-03-12T06:04:00.780Z,7.15
2023-03-12T06:06:30.647Z,7.15
2023-03-12T06:08:57.776Z,6.95
2023-03-12T06:11:24.869Z,9.13
2023-03-12T06:13:51.596Z,8.10
2023-03-12T06:16:24.091Z,7.55
2023-03-12T06:18:55.630Z,10.63
2023-03-12T06:21:24.896Z,9.73
2023-03-12T06:23:52.608Z,10.68
2023-03-12T06:26:24.736Z,9.45
2023-03-12T06:28:52.189Z,8.95
2023-03-12T06:31:19.835Z,12.95
2023-03-12T06:33:47.102Z,8.55
2023-03-12T06:36:14.223Z,8.70
2023-03-12T06:38:41.296Z,11.70
2023-03-12T06:41:14.136Z,9.23
2023-03-12T06:43:41.554Z,6.95
2023-03-12T06:46:11.534Z,7.72
2023-03-12T06:48:41.218Z,12.30
2023-03-12T06:51:10.161Z,8.18
2023-03-12T06:53:37.033Z,8.50
2023-03-12T06:56:04.150Z,8.73
2023-03-12T06:58:30.912Z,12.57
2023-03-12T07:00:57.760Z,9.65
2023-03-12T07:03:24.363Z,11.10
2023-03-12T07:05:51.617Z,8.77
2023-03-12T07:08:18.924Z,6.07
2023-03-12T07:10:46.055Z,6.80
2023-03-12T07:13:13.253Z,8.32
2023-03-12T07:15:40.023Z,10.05
2023-03-12T07:18:08.079Z,9.95
2023-03-12T07:20:37.968Z,13.88
2023-03-12T07:23:04.783Z,11.57
2023-03-12T07:25:31.339Z,6.65
2023-03-12T07:27:57.915Z,9.05
2023-03-12T07:30:24.519Z,8.77
2023-03-12T07:32:51.118Z,5.97
2023-03-12T07:35:17.828Z,7.85
2023-03-12T07:37:44.484Z,10.82
2023-03-12T07:40:11.595Z,11.77
2023-03-12T07:42:38.225Z,7.25
2023-03-12T07:45:08.083Z,11.10
2023-03-12T07:47:34.802Z,8.32
2023-03-12T07:50:01.980Z,9.02
2023-03-12T07:52:28.641Z,11.65
2023-03-12T07:54:56.556Z,7.03
2023-03-12T07:57:23.167Z,8.98
2023-03-12T07:59:50.127Z,8.00
2023-03-12T08:02:16.878Z,8.10
2023-03-12T08:04:43.490Z,8.02
2023-03-12T08:07:10.161Z,8.80
2023-03-12T08:09:38.688Z,5.68
2023-03-12T08:12:07.180Z,7.90
2023-03-12T08:14:34.380Z,5.85
2023-03-12T08:17:01.523Z,11.02
2023-03-12T08:19:28.380Z,6.65
2023-03-12T08:21:55.355Z,7.03
2023-03-12T08:24:23.992Z,7.38
2023-03-12T08:26:50.538Z,8.82
2023-03-12T08:29:17.252Z,7.28
2023-03-12T08:32:01.517Z,11.15
2023-03-12T08:34:30.247Z,8.50
2023-03-12T08:36:56.818Z,5.95
2023-03-12T08:39:23.416Z,13.15
2023-03-12T08:41:51.687Z,7.47
2023-03-12T08:44:18.272Z,11.52
2023-03-12T08:46:44.947Z,8.23
2023-03-12T08:49:11.471Z,9.73
2023-03-12T08:51:38.023Z,7.70
2023-03-12T08:54:05.614Z,6.85
2023-03-12T08:56:32.413Z,5.82
2023-03-12T08:58:59.683Z,6.07
2023-03-12T09:01:26.244Z,8.57
2023-03-12T09:03:55.120Z,6.82
2023-03-12T09:06:21.672Z,8.90
2023-03-12T09:08:49.217Z,9.15
2023-03-12T09:11:15.820Z,8.10
2023-03-12T09:14:05.139Z,10.02
2023-03-12T09:16:29.717Z,8.35
2023-03-12T09:18:56.391Z,7.75
2023-03-12T09:21:22.999Z,8.95
2023-03-12T09:23:49.577Z,14.20
2023-03-12T09:26:16.197Z,10.65
2023-03-12T09:28:44.736Z,9.02
2023-03-12T09:31:13.272Z,12.90
2023-03-12T09:33:39.846Z,12.52
2023-03-12T09:36:06.804Z,15.30
2023-03-12T09:38:35.453Z,11.23
2023-03-12T09:41:05.098Z,12.30
2023-03-12T09:43:39.065Z,12.82
2023-03-12T09:46:12.841Z,13.48
2023-03-12T09:48:39.691Z,10.90
2023-03-12T09:51:26.468Z,13.43
2023-03-12T09:53:56.362Z,18.50
2023-03-12T09:56:23.556Z,11.48
2023-03-12T09:58:54.497Z,12.45
2023-03-12T10:01:26.937Z,10.15
2023-03-12T10:04:14.714Z,18.95
2023-03-12T10:07:01.915Z,11.68
2023-03-12T10:09:40.602Z,16.38
2023-03-12T10:12:25.612Z,15.13
2023-03-12T10:15:24.708Z,12.18
2023-03-12T10:18:03.840Z,12.60
2023-03-12T10:20:33.258Z,14.23
2023-03-12T10:23:12.970Z,15.13
2023-03-12T10:25:47.302Z,17.80
2023-03-12T10:28:30.031Z,18.98
2023-03-12T10:31:00.459Z,20.33
2023-03-12T10:33:41.346Z,19.15
2023-03-12T10:36:15.722Z,20.02
2023-03-12T10:38:42.311Z,23.02
2023-03-12T10:41:15.056Z,20.05
2023-03-12T10:43:41.675Z,15.73
2023-03-12T10:46:14.555Z,13.65
2023-03-12T10:48:41.639Z,17.92
2023-03-12T10:51:11.538Z,18.65
2023-03-12T10:53:44.740Z,17.13
2023-03-12T10:56:13.584Z,18.95
2023-03-12T10:58:41.680Z,14.40
2023-03-12T11:01:25.830Z,18.85
2023-03-12T11:03:54.526Z,17.35
2023-03-12T11:06:24.897Z,14.40
2023-03-12T11:09:16.580Z,13.65
2023-03-12T11:11:47.457Z,46.20
2023-03-12T11:14:21.950Z,14.55
2023-03-12T11:16:49.804Z,20.38
2023-03-12T11:19:33.793Z,12.70
2023-03-12T11:24:30.677Z,8.85
2023-03-12T11:27:20.158Z,14.63
2023-03-12T11:29:49.261Z,10.27
2023-03-12T11:32:18.997Z,12.38
2023-03-12T11:34:49.672Z,13.23
2023-03-12T11:37:28.465Z,16.15
2023-03-12T11:40:00.846Z,18.63
2023-03-12T11:42:39.856Z,12.50
2023-03-12T11:45:27.424Z,9.90
2023-03-12T11:48:03.823Z,13.05
2023-03-12T11:50:52.064Z,119.20
2023-03-12T11:53:28.594Z,18.15
2023-03-12T11:56:01.164Z,18.55
2023-03-12T11:58:52.189Z,16.23
2023-03-12T12:01:57.097Z,12.85
2023-03-12T12:04:34.290Z,17.15
2023-03-12T12:07:06.739Z,15.13
2023-03-12T12:09:47.068Z,16.65
2023-03-12T12:12:36.762Z,11.68
2023-03-12T12:15:39.042Z,16.98
2023-03-12T12:18:47.193Z,13.20
2023-03-12T12:21:44.525Z,14.27
2023-03-12T12:24:32.771Z,11.95
2023-03-12T12:27:29.169Z,14.68
2023-03-12T12:30:29.717Z,15.57
2023-03-12T12:33:19.519Z,15.07
2023-03-12T12:35:46.314Z,15.80
2023-03-12T12:38:30.531Z,16.35
2023-03-12T12:41:12.109Z,19.38
2023-03-12T12:43:47.526Z,16.00
2023-03-12T12:46:26.189Z,14.73
2023-03-12T12:48:54.270Z,14.80
2023-03-12T12:51:28.316Z,15.30
2023-03-12T12:54:18.651Z,21.83
2023-03-12T12:56:55.555Z,13.32
2023-03-12T12:59:45.156Z,18.40
2023-03-12T13:02:19.374Z,17.95
2023-03-12T13:04:46.610Z,21.17
2023-03-12T13:07:13.058Z,27.08
2023-03-12T13:09:45.235Z,23.15
2023-03-12T13:12:27.710Z,23.40
2023-03-12T13:14:56.766Z,24.75
2023-03-12T13:17:27.383Z,20.50
2023-03-12T13:20:06.089Z,20.42
2023-03-12T13:22:41.972Z,31.90
2023-03-12T13:25:29.159Z,29.23
2023-03-12T13:28:01.480Z,32.88
2023-03-12T13:30:46.979Z,25.02
2023-03-12T13:33:21.662Z,30.13
2023-03-12T13:36:09.366Z,31.85
2023-03-12T13:38:39.091Z,39.33
2023-03-12T13:41:06.941Z,38.30
2023-03-12T13:43:39.459Z,28.15
2023-03-12T13:46:11.063Z,32.05
2023-03-12T13:48:44.701Z,28.88
2023-03-12T13:51:22.141Z,32.30
2023-03-12T13:53:52.595Z,22.48
2023-03-12T13:56:20.757Z,38.83
2023-03-12T13:58:56.688Z,35.92
2023-03-12T14:01:27.834Z,28.90
2023-03-12T14:03:58.903Z,26.42
2023-03-12T14:06:28.722Z,41.83
2023-03-12T14:09:16.388Z,31.17
2023-03-12T14:11:52.973Z,29.40
2023-03-12T14:14:52.425Z,26.58
2023-03-12T14:17:27.687Z,29.85
2023-03-12T14:20:04.431Z,31.75
2023-03-12T14:22:35.329Z,24.67
2023-03-12T14:25:06.865Z,28.73
2023-03-12T14:27:34.017Z,32.03
2023-03-12T14:30:20.855Z,38.03
2023-03-12T14:32:48.192Z,33.08
2023-03-12T14:35:24.612Z,25.48
2023-03-12T14:38:06.774Z,39.28
2023-03-12T14:40:46.768Z,37.70
2023-03-12T14:43:25.339Z,24.10
2023-03-12T14:45:55.201Z,23.75
2023-03-12T14:48:23.824Z,23.20
2023-03-12T14:50:50.443Z,23.63
2023-03-12T14:53:25.790Z,33.00
2023-03-12T14:56:29.266Z,21.35
2023-03-12T14:58:58.068Z,25.77
2023-03-12T15:01:30.765Z,23.10
2023-03-12T15:04:02.818Z,23.52
2023-03-12T15:06:32.078Z,26.15
2023-03-12T15:09:00.120Z,26.08
2023-03-12T15:11:27.976Z,24.48
2023-03-12T15:13:56.110Z,21.55
2023-03-12T15:16:23.157Z,22.00
2023-03-12T15:18:50.335Z,26.20
2023-03-12T15:21:17.226Z,28.38
2023-03-12T15:23:46.547Z,23.00
2023-03-12T15:26:17.648Z,36.10
2023-03-12T15:28:55.516Z,22.33
2023-03-12T15:31:22.336Z,30.10
2023-03-12T15:34:01.841Z,34.67
2023-03-12T15:36:30.100Z,21.85
2023-03-12T15:39:02.291Z,31.05
2023-03-12T15:41:45.430Z,27.00
2023-03-12T15:44:20.533Z,18.23
2023-03-12T15:46:49.126Z,26.70
2023-03-12T15:49:36.447Z,21.65
2023-03-12T15:52:26.544Z,26.27
2023-03-12T15:55:25.466Z,26.80
2023-03-12T15:57:55.406Z,19.30
2023-03-12T16:00:32.111Z,32.03
2023-03-12T16:03:00.708Z,47.97
2023-03-12T16:05:38.909Z,54.25
2023-03-12T16:08:29.318Z,33.67
2023-03-12T16:10:56.436Z,25.60
2023-03-12T16:13:28.456Z,23.35
2023-03-12T16:15:55.036Z,31.88
2023-03-12T16:18:24.639Z,28.17
2023-03-12T16:20:52.629Z,27.92
2023-03-12T16:23:19.330Z,26.30
2023-03-12T16:25:48.661Z,17.85
2023-03-12T16:28:17.304Z,23.92
2023-03-12T16:30:43.865Z,21.50
2023-03-12T16:33:15.246Z,21.15
2023-03-12T16:35:41.966Z,27.98
2023-03-12T16:38:08.557Z,25.27
2023-03-12T16:40:37.821Z,17.30
2023-03-12T16:43:06.822Z,26.42
2023-03-12T16:45:35.232Z,19.70
2023-03-12T16:48:04.786Z,31.00
2023-03-12T16:50:31.405Z,29.80
2023-03-12T16:52:58.318Z,27.10
2023-03-12T16:55:29.876Z,23.63
2023-03-12T16:57:59.383Z,23.55
2023-03-12T17:00:29.130Z,23.25
2023-03-12T17:02:57.957Z,20.25
2023-03-12T17:05:29.690Z,18.77
2023-03-12T17:07:56.719Z,16.17
2023-03-12T17:10:24.198Z,24.73
2023-03-12T17:12:50.868Z,20.95
2023-03-12T17:15:20.944Z,28.70
2023-03-12T17:17:48.519Z,24.65
2023-03-12T17:20:16.986Z,24.45
2023-03-12T17:22:44.068Z,26.65
2023-03-12T17:25:40.802Z,18.27
2023-03-12T17:28:08.144Z,18.58
2023-03-12T17:30:35.084Z,22.05
2023-03-12T17:33:02.887Z,18.13
2023-03-12T17:35:29.662Z,32.47
2023-03-12T17:37:56.264Z,27.77
2023-03-12T17:40:23.273Z,25.85
2023-03-12T17:42:50.004Z,22.00
2023-03-12T17:45:16.564Z,16.83
2023-03-12T17:47:43.155Z,24.65
2023-03-12T17:50:10.519Z,20.15
2023-03-12T17:52:37.056Z,27.25
2023-03-12T17:55:04.906Z,32.92
2023-03-12T17:57:31.596Z,37.80
2023-03-12T17:59:58.209Z,36.70
2023-03-12T18:02:24.932Z,38.08
2023-03-12T18:04:51.658Z,37.33
2023-03-12T18:07:18.556Z,39.58
2023-03-12T18:09:45.102Z,46.67
2023-03-12T18:12:12.387Z,36.95
2023-03-12T18:14:39.067Z,44.47
2023-03-12T18:17:05.705Z,38.78
2023-03-12T18:19:34.794Z,39.58
2023-03-12T18:22:01.775Z,37.42
2023-03-12T18:24:28.373Z,42.53
2023-03-12T18:26:54.951Z,45.63
2023-03-12T18:29:21.513Z,41.88
2023-03-12T18:31:48.183Z,48.30
2023-03-12T18:34:15.840Z,38.15
2023-03-12T18:36:42.439Z,38.50
2023-03-12T18:39:09.753Z,29.40
2023-03-12T18:41:36.641Z,40.30
2023-03-12T18:44:03.430Z,40.10
2023-03-12T18:46:30.126Z,34.20
2023-03-12T18:48:56.762Z,41.05
2023-03-12T18:51:23.278Z,40.03
2023-03-12T18:53:49.816Z,171.40
2023-03-12T18:56:16.361Z,44.85
2023-03-12T18:58:42.972Z,38.85
2023-03-12T19:01:10.678Z,40.50
2023-03-12T19:03:37.527Z,38.88
2023-03-12T19:06:05.839Z,37.25
2023-03-12T19:08:32.541Z,39.42
2023-03-12T19:10:59.177Z,38.67
2023-03-12T19:13:25.842Z,34.55
2023-03-12T19:16:01.873Z,44.92
2023-03-12T19:18:29.004Z,64.03
2023-03-12T19:20:55.824Z,56.92
2023-03-12T19:23:23.061Z,46.90
2023-03-12T19:25:49.709Z,39.10
2023-03-12T19:28:16.277Z,42.67
2023-03-12T19:30:42.847Z,43.92
2023-03-12T19:33:09.466Z,48.92
2023-03-12T19:35:42.642Z,40.80
2023-03-12T19:38:09.385Z,34.42
2023-03-12T19:40:35.963Z,38.80
2023-03-12T19:43:02.842Z,45.58
2023-03-12T19:45:29.546Z,40.55
2023-03-12T19:47:56.221Z,41.75
2023-03-12T19:50:23.764Z,42.25
2023-03-12T19:52:50.362Z,35.72
2023-03-12T19:55:16.940Z,26.27
2023-03-12T19:57:43.956Z,27.15
2023-03-12T20:00:12.146Z,25.85
2023-03-12T20:02:39.458Z,34.55
2023-03-12T20:05:07.037Z,30.13
2023-03-12T20:07:33.808Z,32.22
2023-03-12T20:10:00.359Z,32.10
2023-03-12T20:12:26.878Z,28.48
2023-03-12T20:14:53.388Z,21.25
2023-03-12T20:17:19.968Z,29.35
2023-03-12T20:19:46.546Z,31.45
2023-03-12T20:22:13.146Z,25.58
2023-03-12T20:24:39.684Z,25.70
2023-03-12T20:27:06.587Z,30.45
2023-03-12T20:29:33.221Z,27.38
2023-03-12T20:31:59.874Z,24.63
2023-03-12T20:34:26.494Z,23.23
2023-03-12T20:36:53.023Z,22.90
2023-03-12T20:39:19.628Z,20.73
2023-03-12T20:41:46.210Z,16.08
2023-03-12T20:44:12.913Z,20.55
2023-03-12T20:46:39.474Z,21.25
2023-03-12T20:49:06.001Z,23.80
2023-03-12T20:51:32.537Z,27.33
2023-03-12T20:53:59.115Z,17.67
2023-03-12T20:56:25.862Z,27.45
2023-03-12T20:58:52.512Z,25.85
2023-03-12T21:01:19.165Z,19.80
2023-03-12T21:03:45.882Z,19.10
2023-03-12T21:06:13.501Z,23.38
2023-03-12T21:08:41.320Z,22.45
2023-03-12T21:11:08.211Z,19.30
2023-03-12T21:13:34.909Z,19.55
2023-03-12T21:16:05.079Z,21.67
2023-03-12T21:18:32.072Z,20.70
2023-03-12T21:21:06.177Z,24.08
2023-03-12T21:23:33.559Z,21.98
2023-03-12T21:26:02.259Z,21.73
2023-03-12T21:28:29.257Z,19.58
2023-03-12T21:30:55.888Z,20.90
2023-03-12T21:33:22.556Z,21.65
2023-03-12T21:35:49.123Z,16.35
2023-03-12T21:38:15.692Z,22.70
2023-03-12T21:40:42.238Z,16.15
2023-03-12T21:43:08.764Z,24.70
2023-03-12T21:45:35.361Z,21.88
2023-03-12T21:48:01.924Z,24.38
2023-03-12T21:50:28.538Z,20.30
2023-03-12T21:52:55.125Z,18.15
2023-03-12T21:55:21.656Z,15.57
2023-03-12T21:57:48.233Z,15.10
2023-03-12T22:00:15.034Z,19.38
2023-03-12T22:02:45.225Z,22.23
2023-03-12T22:05:11.993Z,16.60
2023-03-12T22:07:38.821Z,14.90
2023-03-12T22:10:07.279Z,16.52
2023-03-12T22:12:33.915Z,17.95
2023-03-12T22:15:00.477Z,17.70
2023-03-12T22:17:27.643Z,25.40
2023-03-12T22:19:54.562Z,24.88
2023-03-12T22:22:21.234Z,20.80
2023-03-12T22:24:47.804Z,15.50
2023-03-12T22:27:14.357Z,16.38
2023-03-12T22:29:40.982Z,23.90
2023-03-12T22:32:07.556Z,16.55
2023-03-12T22:34:34.993Z,27.42
2023-03-12T22:37:01.557Z,23.15
2023-03-12T22:39:28.126Z,27.67
2023-03-12T22:41:54.733Z,29.58
2023-03-12T22:44:21.300Z,22.70
2023-03-12T22:46:47.877Z,31.80
2023-03-12T22:49:15.117Z,25.80
2023-03-12T22:51:41.773Z,24.35
2023-03-12T22:54:08.396Z,26.08
2023-03-12T22:56:34.976Z,30.33
2023-03-12T22:59:01.524Z,24.65
2023-03-12T23:01:28.421Z,35.50
2023-03-12T23:03:55.118Z,26.63
2023-03-12T23:06:24.168Z,40.97
2023-03-12T23:08:51.491Z,33.13
2023-03-12T23:11:18.858Z,31.95
2023-03-12T23:13:46.672Z,32.70
2023-03-12T23:16:16.622Z,31.63
2023-03-12T23:18:43.430Z,34.42
2023-03-12T23:21:12.623Z,28.42
2023-03-12T23:23:43.527Z,34.53
2023-03-12T23:26:21.900Z,28.42
2023-03-12T23:28:48.645Z,41.80
2023-03-12T23:31:16.152Z,41.80
2023-03-12T23:33:42.858Z,33.47
2023-03-12T23:36:17.936Z,35.97
2023-03-12T23:38:45.142Z,40.13
2023-03-12T23:41:14.320Z,32.28
2023-03-12T23:43:41.088Z,44.22
2023-03-12T23:46:08.595Z,35.03
2023-03-12T23:48:36.658Z,47.28
2023-03-12T23:51:14.479Z,42.45
2023-03-12T23:53:42.922Z,39.75
2023-03-12T23:56:15.303Z,46.10
2023-03-12T23:58:43.467Z,37.97
